Time;durP1;ratioP1;P1;durP2;ratioP2;P2;SDS_P1;SDS_P2;PMS_P1;PMS_P2;Temp;Humidity;BMP_temperature;BMP_pressure;BME280_temperature;BME280_humidity;BME280_pressure;Samples;Min_cycle;Max_cycle;Signal;HPM_P1;HPM_P2
2022/02/14 00:01:25;;;;;;;14.13;12.35;;;6.20;66.00;;;;;;4975198;28;20039;-77
2022/02/14 00:03:51;;;;;;;12.82;9.85;;;6.20;66.10;;;;;;4975414;28;20464;-77
2022/02/14 00:06:17;;;;;;;104.32;93.43;;;6.10;66.20;;;;;;4975424;28;20034;-78
2022/02/14 00:08:45;;;;;;;31.98;24.98;;;6.10;66.30;;;;;;4974570;28;20038;-78
2022/02/14 00:11:12;;;;;;;28.73;25.70;;;6.10;66.50;;;;;;4975757;28;20035;-79
2022/02/14 00:13:38;;;;;;;54.97;45.92;;;6.10;66.50;;;;;;4974443;28;20031;-78
2022/02/14 00:16:04;;;;;;;19.35;10.27;;;6.10;66.10;;;;;;4975208;28;20034;-78
2022/02/14 00:18:31;;;;;;;26.77;19.52;;;6.20;66.30;;;;;;4989423;28;20054;-79
2022/02/14 00:20:57;;;;;;;55.03;45.13;;;6.10;66.40;;;;;;4976459;28;20408;-78
2022/02/14 00:23:24;;;;;;;74.75;66.20;;;6.00;66.40;;;;;;4975378;28;20039;-78
2022/02/14 00:25:51;;;;;;;20.77;13.82;;;5.90;66.50;;;;;;4974488;28;20047;-78
2022/02/14 00:28:18;;;;;;;22.63;20.27;;;5.90;67.00;;;;;;4975545;28;20042;-78
2022/02/14 00:30:44;;;;;;;13.57;9.73;;;5.90;67.20;;;;;;4958384;28;20058;-78
2022/02/14 00:33:10;;;;;;;85.88;66.22;;;5.80;67.20;;;;;;4976494;28;20391;-79
2022/02/14 00:35:36;;;;;;;9.95;7.32;;;5.90;66.90;;;;;;4975402;28;20046;-79
2022/02/14 00:38:03;;;;;;;24.38;15.57;;;5.80;67.40;;;;;;4957924;28;20065;-78
2022/02/14 00:40:30;;;;;;;77.32;57.72;;;5.80;67.50;;;;;;4974510;28;20043;-78
2022/02/14 00:42:56;;;;;;;30.80;18.48;;;5.70;67.70;;;;;;4974849;28;20057;-78
2022/02/14 00:45:22;;;;;;;11.82;9.35;;;5.60;68.60;;;;;;4974846;28;20042;-78
2022/02/14 00:47:49;;;;;;;6.60;5.22;;;5.50;68.30;;;;;;4974279;28;20037;-78
2022/02/14 00:50:16;;;;;;;14.02;12.43;;;5.50;68.80;;;;;;4957287;28;20039;-78
2022/02/14 00:52:42;;;;;;;10.15;7.78;;;5.60;68.30;;;;;;4973960;28;20038;-78
2022/02/14 00:55:11;;;;;;;15.48;14.02;;;5.60;68.10;;;;;;4957343;28;20119;-78
2022/02/14 00:57:37;;;;;;;14.57;13.05;;;5.50;68.30;;;;;;4956587;28;20057;-78
2022/02/14 01:00:06;;;;;;;9.98;7.97;;;5.40;68.80;;;;;;4974914;28;20380;-78
2022/02/14 01:02:32;;;;;;;17.73;16.05;;;5.30;69.00;;;;;;4973310;28;20038;-78
2022/02/14 01:04:59;;;;;;;11.07;9.98;;;5.30;69.10;;;;;;4974742;28;20034;-78
2022/02/14 01:07:26;;;;;;;9.63;3.67;;;5.20;69.20;;;;;;4957329;28;20034;-78
2022/02/14 01:09:52;;;;;;;9.23;7.78;;;5.30;68.90;;;;;;4974157;28;20514;-78
2022/02/14 01:12:18;;;;;;;38.72;34.70;;;5.50;68.30;;;;;;4956514;28;20052;-78
2022/02/14 01:14:44;;;;;;;7.57;5.72;;;5.50;68.00;;;;;;4940674;28;20085;-79
2022/02/14 01:17:10;;;;;;;26.23;22.92;;;5.50;68.50;;;;;;4974119;28;20054;-78
2022/02/14 01:19:37;;;;;;;16.63;15.25;;;5.40;68.60;;;;;;4973494;28;20039;-78
2022/02/14 01:22:03;;;;;;;11.35;5.70;;;5.30;68.70;;;;;;4974290;28;20031;-78
2022/02/14 01:24:29;;;;;;;19.35;17.70;;;5.30;69.10;;;;;;4956265;28;20038;-78
2022/02/14 01:26:56;;;;;;;9.00;7.88;;;5.40;68.80;;;;;;4973848;28;20035;-78
2022/02/14 01:29:22;;;;;;;11.73;9.43;;;5.40;68.70;;;;;;4988935;28;20049;-78
2022/02/14 01:31:49;;;;;;;14.73;13.43;;;5.30;68.80;;;;;;4973082;28;20127;-78
2022/02/14 01:34:16;;;;;;;21.48;19.83;;;5.30;68.80;;;;;;4973827;28;20034;-79
2022/02/14 01:36:42;;;;;;;16.33;15.05;;;5.20;68.90;;;;;;4972978;28;20035;-78
2022/02/14 01:39:09;;;;;;;5.53;5.05;;;5.20;68.90;;;;;;4956741;28;20054;-78
2022/02/14 01:41:35;;;;;;;5.80;4.10;;;5.20;69.30;;;;;;4955085;28;20047;-78
2022/02/14 01:44:01;;;;;;;9.20;8.43;;;5.20;69.80;;;;;;4973794;28;20038;-78
2022/02/14 01:46:27;;;;;;;5.65;4.82;;;5.10;69.50;;;;;;4973871;28;20038;-78
2022/02/14 01:48:53;;;;;;;4.32;3.92;;;5.10;69.60;;;;;;4973058;28;20038;-78
2022/02/14 01:51:19;;;;;;;4.28;3.88;;;5.10;69.60;;;;;;4988633;28;20038;-78
2022/02/14 01:53:46;;;;;;;11.63;2.90;;;5.10;69.50;;;;;;4955302;28;20046;-77
2022/02/14 01:56:12;;;;;;;5.30;3.28;;;5.10;69.20;;;;;;4973530;28;20046;-78
2022/02/14 01:58:38;;;;;;;6.35;3.55;;;5.20;69.30;;;;;;4972779;28;20039;-77
2022/02/14 02:01:04;;;;;;;5.70;3.17;;;5.20;68.80;;;;;;4973335;28;20464;-78
2022/02/14 02:03:30;;;;;;;4.28;2.88;;;5.20;69.10;;;;;;4973593;28;20039;-78
2022/02/14 02:05:58;;;;;;;5.72;3.90;;;5.20;68.90;;;;;;4972914;28;20031;-78
2022/02/14 02:08:25;;;;;;;4.13;3.20;;;5.20;68.80;;;;;;4972827;28;20062;-77
2022/02/14 02:12:22;;;;;;;4.40;3.08;;;5.20;68.40;;;;;;4987092;28;20050;-77
2022/02/14 02:13:37;;;;;;;4.43;3.30;;;5.30;68.20;;;;;;4972506;28;20034;-77
2022/02/14 02:16:03;;;;;;;3.00;2.67;;;5.50;67.30;;;;;;4973240;28;20031;-77
2022/02/14 02:18:30;;;;;;;6.85;2.83;;;5.50;67.20;;;;;;4973440;28;20491;-78
2022/02/14 02:20:56;;;;;;;3.88;2.45;;;5.40;67.70;;;;;;4971991;28;20053;-77
2022/02/14 02:23:22;;;;;;;2.65;2.15;;;5.40;67.10;;;;;;4973378;28;20035;-78
2022/02/14 02:25:48;;;;;;;3.65;2.63;;;5.40;67.40;;;;;;4972299;28;20031;-77
2022/02/14 02:28:15;;;;;;;2.95;2.50;;;5.30;67.40;;;;;;4955750;28;20041;-77
2022/02/14 02:30:41;;;;;;;2.47;2.00;;;5.40;67.20;;;;;;4972697;28;20379;-77
2022/02/14 02:33:07;;;;;;;4.00;2.90;;;5.50;67.30;;;;;;4955504;28;20043;-77
2022/02/14 02:35:33;;;;;;;3.50;2.17;;;5.40;67.30;;;;;;4971866;28;20034;-78
2022/02/14 02:38:00;;;;;;;3.70;2.38;;;5.40;67.00;;;;;;4972472;28;20225;-77
2022/02/14 02:40:26;;;;;;;8.63;2.67;;;5.40;67.00;;;;;;4972898;28;20038;-77
2022/02/14 02:42:53;;;;;;;4.25;2.67;;;5.50;66.80;;;;;;4971880;28;20247;-77
2022/02/14 02:45:20;;;;;;;5.15;2.40;;;5.50;66.70;;;;;;4972980;28;20039;-78
2022/02/14 02:47:46;;;;;;;3.55;2.80;;;5.70;66.30;;;;;;4972011;28;20084;-78
2022/02/14 02:50:13;;;;;;;5.82;2.42;;;5.70;66.20;;;;;;4955714;28;20491;-78
2022/02/14 02:52:39;;;;;;;4.65;3.00;;;5.70;66.20;;;;;;4972130;28;20464;-77
2022/02/14 02:55:06;;;;;;;4.57;2.50;;;5.70;66.10;;;;;;4955552;28;20034;-77
2022/02/14 02:57:32;;;;;;;6.75;2.40;;;5.70;66.20;;;;;;4972676;28;20054;-77
2022/02/14 02:59:58;;;;;;;5.85;2.60;;;5.80;66.00;;;;;;4972175;28;20054;-78
2022/02/14 03:02:24;;;;;;;5.95;2.55;;;5.80;66.00;;;;;;4972820;28;20035;-77
2022/02/14 03:04:50;;;;;;;3.97;2.47;;;6.00;65.60;;;;;;4971025;28;20050;-77
2022/02/14 03:07:17;;;;;;;3.15;2.33;;;6.10;65.10;;;;;;4955016;28;20381;-77
2022/02/14 03:09:43;;;;;;;4.55;2.33;;;6.10;64.90;;;;;;4971897;28;20039;-77
2022/02/14 03:12:10;;;;;;;3.08;2.28;;;6.10;65.00;;;;;;4973012;28;20037;-78
2022/02/14 03:14:39;;;;;;;4.85;2.95;;;6.10;65.20;;;;;;4955411;28;20473;-78
2022/02/14 03:17:08;;;;;;;3.03;2.70;;;6.10;65.10;;;;;;4972624;28;20392;-78
2022/02/14 03:19:34;;;;;;;4.55;3.28;;;6.10;65.00;;;;;;4972736;28;20046;-77
2022/02/14 03:22:03;;;;;;;2.53;2.22;;;6.10;65.30;;;;;;4971995;28;20039;-77
2022/02/14 03:24:30;;;;;;;5.47;2.83;;;6.00;65.50;;;;;;4955410;28;20043;-77
2022/02/14 03:26:56;;;;;;;3.97;2.47;;;5.90;65.70;;;;;;4971657;28;20042;-77
2022/02/14 03:29:22;;;;;;;6.72;2.97;;;5.90;65.90;;;;;;4955082;28;20415;-77
2022/02/14 03:31:49;;;;;;;3.88;2.35;;;5.80;66.00;;;;;;4954450;28;20039;-77
2022/02/14 03:34:15;;;;;;;4.20;2.95;;;5.80;66.10;;;;;;4972420;28;20027;-77
2022/02/14 03:36:42;;;;;;;4.85;2.55;;;5.70;66.40;;;;;;4971709;28;20038;-77
2022/02/14 03:39:08;;;;;;;3.65;2.95;;;5.70;66.90;;;;;;4972237;28;20472;-77
2022/02/14 03:41:34;;;;;;;8.18;3.03;;;5.50;67.20;;;;;;4955202;28;20053;-77
2022/02/14 03:44:00;;;;;;;4.18;2.55;;;5.40;67.60;;;;;;4971335;28;20054;-77
2022/02/14 03:46:26;;;;;;;3.50;2.55;;;5.40;67.70;;;;;;4972964;28;20038;-77
2022/02/14 03:48:53;;;;;;;4.82;2.90;;;5.40;68.20;;;;;;4975240;28;20035;-77
2022/02/14 03:51:19;;;;;;;4.20;2.80;;;5.30;68.40;;;;;;4958657;28;20031;-77
2022/02/14 03:53:45;;;;;;;3.95;3.10;;;5.20;68.70;;;;;;4975161;28;20543;-77
2022/02/14 03:56:12;;;;;;;3.20;2.70;;;5.10;69.20;;;;;;4973977;28;20045;-78
2022/02/14 03:58:38;;;;;;;4.03;2.97;;;5.00;69.50;;;;;;4975495;28;20042;-77
2022/02/14 04:01:05;;;;;;;4.43;2.92;;;5.00;69.70;;;;;;4975740;28;20039;-77
2022/02/14 04:03:31;;;;;;;4.38;2.78;;;4.90;69.80;;;;;;4975915;28;20041;-77
2022/02/14 04:05:57;;;;;;;6.80;2.83;;;4.90;69.90;;;;;;4941752;28;20038;-77
2022/02/14 04:08:24;;;;;;;9.07;2.67;;;4.80;70.40;;;;;;4975744;28;20042;-77
2022/02/14 04:10:52;;;;;;;4.80;3.17;;;4.80;70.50;;;;;;4974929;28;20030;-77
2022/02/14 04:13:18;;;;;;;4.78;3.08;;;4.80;70.80;;;;;;4975452;28;20037;-77
2022/02/14 04:15:44;;;;;;;6.80;3.42;;;4.80;70.70;;;;;;4974492;28;20041;-77
2022/02/14 04:18:10;;;;;;;4.65;3.03;;;5.00;70.20;;;;;;4957977;28;20062;-77
2022/02/14 04:20:36;;;;;;;4.20;3.10;;;5.00;70.10;;;;;;4975271;28;20035;-77
2022/02/14 04:23:03;;;;;;;5.28;2.63;;;4.90;70.40;;;;;;4974635;28;20049;-77
2022/02/14 04:25:31;;;;;;;3.40;2.35;;;4.80;70.80;;;;;;4975354;28;20026;-77
2022/02/14 04:27:57;;;;;;;3.30;2.65;;;4.60;71.30;;;;;;4974765;28;20039;-77
2022/02/14 04:30:25;;;;;;;8.98;3.33;;;4.50;71.60;;;;;;4957804;28;20046;-77
2022/02/14 04:32:53;;;;;;;3.78;2.95;;;4.40;72.10;;;;;;4941805;28;20054;-77
2022/02/14 04:35:19;;;;;;;2.88;2.58;;;4.40;72.30;;;;;;4975171;28;20063;-77
2022/02/14 04:37:45;;;;;;;3.20;2.55;;;4.40;72.10;;;;;;4974425;28;20042;-77
2022/02/14 04:40:11;;;;;;;7.45;2.85;;;4.40;72.30;;;;;;4975314;28;20039;-77
2022/02/14 04:42:38;;;;;;;5.00;3.15;;;4.60;71.90;;;;;;4974620;28;20039;-77
2022/02/14 04:45:04;;;;;;;3.30;2.88;;;4.50;71.80;;;;;;4956928;28;20034;-77
2022/02/14 04:47:31;;;;;;;3.53;2.47;;;4.60;71.70;;;;;;4974339;28;20046;-77
2022/02/14 04:49:57;;;;;;;8.55;3.13;;;4.60;71.80;;;;;;4974274;28;20038;-77
2022/02/14 04:52:24;;;;;;;3.10;2.65;;;4.60;71.80;;;;;;4957769;28;20031;-77
2022/02/14 04:54:50;;;;;;;4.80;2.83;;;4.70;71.70;;;;;;4974278;28;20037;-77
2022/02/14 04:57:16;;;;;;;3.38;2.60;;;4.80;71.20;;;;;;4974384;28;20051;-78
2022/02/14 04:59:43;;;;;;;3.38;2.60;;;4.90;70.60;;;;;;4973657;28;20479;-77
2022/02/14 05:02:09;;;;;;;8.27;3.13;;;4.90;70.60;;;;;;4957169;28;20050;-77
2022/02/14 05:04:35;;;;;;;4.53;2.67;;;4.90;70.60;;;;;;4974839;28;20046;-77
2022/02/14 05:07:02;;;;;;;5.13;2.53;;;4.90;70.60;;;;;;4974107;28;20041;-77
2022/02/14 05:09:28;;;;;;;4.75;2.67;;;4.90;70.80;;;;;;4957235;28;20046;-77
2022/02/14 05:11:54;;;;;;;4.40;3.70;;;4.80;70.70;;;;;;4973552;28;20050;-77
2022/02/14 05:14:21;;;;;;;5.32;4.40;;;4.80;70.60;;;;;;4974421;28;20030;-77
2022/02/14 05:16:47;;;;;;;6.03;3.28;;;4.90;70.10;;;;;;4956390;28;20400;-77
2022/02/14 05:19:13;;;;;;;4.85;2.70;;;5.10;69.80;;;;;;4974515;28;20372;-78
2022/02/14 05:21:39;;;;;;;3.03;2.72;;;5.10;69.60;;;;;;4974340;28;20031;-78
2022/02/14 05:24:05;;;;;;;5.65;4.20;;;5.10;69.60;;;;;;4973674;28;20073;-80
2022/02/14 05:26:32;;;;;;;4.07;2.80;;;5.00;69.60;;;;;;4973344;28;20098;-80
2022/02/14 05:28:58;;;;;;;8.02;4.25;;;4.90;69.60;;;;;;4973385;28;20037;-79
2022/02/14 05:31:26;;;;;;;5.50;2.63;;;4.90;70.10;;;;;;4974145;28;20415;-79
2022/02/14 05:33:53;;;;;;;7.93;3.20;;;4.80;70.20;;;;;;4955724;28;20058;-79
2022/02/14 05:36:19;;;;;;;4.00;3.22;;;4.80;70.10;;;;;;4974048;28;20035;-80
2022/02/14 05:38:46;;;;;;;4.22;2.38;;;4.80;70.20;;;;;;4973388;28;20042;-80
2022/02/14 05:41:12;;;;;;;3.03;2.72;;;4.90;69.80;;;;;;4974277;28;20031;-80
2022/02/14 05:43:39;;;;;;;3.40;3.10;;;5.00;69.90;;;;;;4974288;28;20035;-80
2022/02/14 05:46:13;;;;;;;2.75;2.30;;;4.90;70.00;;;;;;4973117;28;20107;-79
2022/02/14 05:48:47;;;;;;;4.00;2.60;;;4.90;69.90;;;;;;4973719;28;20395;-79
2022/02/14 05:51:14;;;;;;;4.43;2.83;;;5.00;70.00;;;;;;4973605;28;20046;-79
2022/02/14 05:53:41;;;;;;;9.48;3.30;;;5.00;69.30;;;;;;4973593;28;20039;-79
2022/02/14 05:56:08;;;;;;;5.78;5.18;;;5.00;69.50;;;;;;4973312;28;20512;-80
2022/02/14 05:58:34;;;;;;;7.68;4.80;;;4.90;69.90;;;;;;4973612;28;20035;-80
2022/02/14 06:01:00;;;;;;;5.55;3.50;;;4.90;69.40;;;;;;4955830;28;20054;-81
2022/02/14 06:03:27;;;;;;;4.47;3.70;;;4.90;69.30;;;;;;4973657;28;20371;-80
2022/02/14 06:05:53;;;;;;;5.22;3.00;;;4.90;69.70;;;;;;4955400;28;20041;-80
2022/02/14 06:08:19;;;;;;;3.83;3.17;;;4.90;69.10;;;;;;4973643;28;20035;-80
2022/02/14 06:10:46;;;;;;;3.28;2.83;;;5.00;69.20;;;;;;4973243;28;20380;-80
2022/02/14 06:13:12;;;;;;;11.45;3.22;;;5.20;68.60;;;;;;4973014;28;20038;-80
2022/02/14 06:15:38;;;;;;;14.43;11.95;;;5.30;68.40;;;;;;4973781;28;20460;-80
2022/02/14 06:18:05;;;;;;;14.63;13.05;;;5.50;67.80;;;;;;4972245;28;20050;-80
2022/02/14 06:20:31;;;;;;;89.00;64.88;;;5.50;67.50;;;;;;4973284;28;20392;-80
2022/02/14 06:22:57;;;;;;;65.55;47.90;;;5.60;67.40;;;;;;4972746;28;20039;-79
2022/02/14 06:25:23;;;;;;;84.35;60.20;;;5.70;67.00;;;;;;4973050;28;20042;-79
2022/02/14 06:27:49;;;;;;;46.50;36.40;;;5.80;66.20;;;;;;4972736;28;20030;-80
2022/02/14 06:30:18;;;;;;;108.50;75.20;;;5.90;66.20;;;;;;4973269;28;20035;-79
2022/02/14 06:32:45;;;;;;;11.82;8.32;;;5.90;66.10;;;;;;4955630;28;20460;-79
2022/02/14 06:35:11;;;;;;;40.50;22.08;;;6.00;65.50;;;;;;4955125;28;20039;-79
2022/02/14 06:37:37;;;;;;;4.78;3.00;;;6.10;65.30;;;;;;4973229;28;20039;-79
2022/02/14 06:40:05;;;;;;;37.88;25.58;;;6.20;64.90;;;;;;4972792;28;20038;-79
2022/02/14 06:42:31;;;;;;;30.33;24.52;;;6.20;64.90;;;;;;4973218;28;20357;-80
2022/02/14 06:44:57;;;;;;;27.27;14.90;;;6.20;64.30;;;;;;4972221;28;20388;-79
2022/02/14 06:47:23;;;;;;;8.63;6.50;;;6.30;64.40;;;;;;4955414;28;20043;-80
2022/02/14 06:49:50;;;;;;;39.38;30.25;;;6.30;64.30;;;;;;4972204;28;20035;-80
2022/02/14 06:52:16;;;;;;;33.60;26.00;;;6.40;63.80;;;;;;4972751;28;20027;-81
2022/02/14 06:54:42;;;;;;;21.55;16.65;;;6.40;63.70;;;;;;4956090;28;20035;-81
2022/02/14 06:57:08;;;;;;;5.78;4.68;;;6.40;63.90;;;;;;4971925;28;20053;-82
2022/02/14 06:59:34;;;;;;;29.92;21.98;;;6.40;63.30;;;;;;4955672;28;20054;-80
2022/02/14 07:02:01;;;;;;;19.05;16.35;;;6.50;63.40;;;;;;4972438;28;20460;-80
2022/02/14 07:04:28;;;;;;;17.83;16.08;;;6.40;63.60;;;;;;4972481;28;20467;-79
2022/02/14 07:06:54;;;;;;;33.85;30.45;;;6.40;63.50;;;;;;4952993;29;20084;-80
2022/02/14 07:09:20;;;;;;;8.80;6.90;;;6.50;63.50;;;;;;4953665;29;20040;-80
2022/02/14 07:11:46;;;;;;;22.38;17.88;;;6.50;63.40;;;;;;4953245;29;20027;-81
2022/02/14 07:14:12;;;;;;;9.45;7.82;;;6.50;63.80;;;;;;4952675;29;20035;-81
2022/02/14 07:16:43;;;;;;;5.72;4.53;;;6.50;63.90;;;;;;4952866;29;20055;-81
2022/02/14 07:19:10;;;;;;;10.80;3.95;;;6.50;64.30;;;;;;4952616;29;20036;-81
2022/02/14 07:21:36;;;;;;;6.35;4.40;;;6.50;64.70;;;;;;4954065;28;20453;-81
2022/02/14 07:24:03;;;;;;;14.45;9.65;;;6.50;65.70;;;;;;4956437;29;20035;-80
2022/02/14 07:26:29;;;;;;;30.38;23.98;;;6.40;66.60;;;;;;4957381;29;20031;-81
2022/02/14 07:28:56;;;;;;;5.53;4.57;;;6.50;66.20;;;;;;4956321;29;20035;-81
2022/02/14 07:31:22;;;;;;;19.25;16.63;;;6.50;66.20;;;;;;4956135;29;20035;-80
2022/02/14 07:33:49;;;;;;;10.30;9.20;;;6.50;66.00;;;;;;4956862;29;20043;-82
2022/02/14 07:36:15;;;;;;;7.57;4.32;;;6.50;66.20;;;;;;4956737;29;20043;-82
2022/02/14 07:38:41;;;;;;;6.35;5.75;;;6.50;66.60;;;;;;4956895;29;20047;-83
2022/02/14 07:41:07;;;;;;;16.23;14.73;;;6.50;66.50;;;;;;4955825;29;20389;-82
2022/02/14 07:43:33;;;;;;;7.22;3.05;;;6.50;67.40;;;;;;4956890;29;20031;-81
2022/02/14 07:46:00;;;;;;;8.90;3.25;;;6.50;67.90;;;;;;4956577;29;20042;-80
2022/02/14 07:48:26;;;;;;;8.52;5.88;;;6.40;68.60;;;;;;4956623;29;20058;-80
2022/02/14 07:50:52;;;;;;;7.65;5.65;;;6.40;69.00;;;;;;4956553;29;20031;-79
2022/02/14 07:53:19;;;;;;;6.25;2.70;;;6.50;69.50;;;;;;4939486;29;20494;-81
2022/02/14 07:55:45;;;;;;;4.88;3.88;;;6.50;70.70;;;;;;4956726;29;20042;-81
2022/02/14 07:58:12;;;;;;;2.88;2.53;;;6.50;70.10;;;;;;4967412;28;20047;-82
2022/02/14 08:00:39;;;;;;;5.03;4.13;;;6.60;69.80;;;;;;4976171;28;20487;-82
2022/02/14 08:03:06;;;;;;;4.00;2.60;;;6.70;70.20;;;;;;4974979;28;20046;-82
2022/02/14 08:05:32;;;;;;;4.45;4.05;;;6.70;69.60;;;;;;4976390;28;20349;-82
2022/02/14 08:07:58;;;;;;;5.78;5.28;;;6.90;69.40;;;;;;4974936;28;20030;-82
2022/02/14 08:10:24;;;;;;;7.35;3.72;;;7.00;69.10;;;;;;4976336;28;20046;-82
2022/02/14 08:12:51;;;;;;;4.18;2.80;;;7.10;68.70;;;;;;4975953;28;20038;-86
2022/02/14 08:15:17;;;;;;;5.05;2.30;;;7.20;68.20;;;;;;4975297;28;20035;-81
2022/02/14 08:17:43;;;;;;;13.63;3.17;;;7.30;67.20;;;;;;4967302;28;20051;-88
2022/02/14 08:20:10;;;;;;;7.07;3.50;;;7.30;67.20;;;;;;4939438;29;20066;-87
2022/02/14 08:22:37;;;;;;;6.00;3.58;;;7.30;67.40;;;;;;4956357;29;20047;-89
2022/02/14 08:25:04;;;;;;;8.48;5.28;;;7.30;67.90;;;;;;4956857;29;20038;-88
2022/02/14 08:27:30;;;;;;;10.13;5.18;;;7.20;68.20;;;;;;4957285;29;20062;-85
2022/02/14 08:29:57;;;;;;;4.63;4.22;;;7.20;67.90;;;;;;4956696;29;20047;-86
2022/02/14 08:32:24;;;;;;;6.93;4.70;;;7.20;68.70;;;;;;4979938;28;20028;-88
2022/02/14 08:34:50;;;;;;;6.78;4.03;;;7.20;68.90;;;;;;4969184;29;20042;-88
2022/02/14 08:37:16;;;;;;;4.82;3.35;;;7.20;68.30;;;;;;4991834;28;20047;-87
2022/02/14 08:39:43;;;;;;;7.20;5.13;;;7.30;68.10;;;;;;4995918;28;20023;-87
2022/02/14 08:42:09;;;;;;;5.50;3.67;;;7.40;68.20;;;;;;4979746;28;20107;-85
2022/02/14 08:44:35;;;;;;;5.50;3.10;;;7.40;68.60;;;;;;4980611;28;20029;-84
2022/02/14 08:47:01;;;;;;;12.75;4.30;;;7.50;68.40;;;;;;4966865;28;20044;-88
2022/02/14 08:49:29;;;;;;;4.30;2.90;;;7.50;68.60;;;;;;4957026;29;20039;-86
2022/02/14 08:51:55;;;;;;;5.07;2.45;;;7.70;69.00;;;;;;4956281;29;20039;-85
2022/02/14 08:54:21;;;;;;;4.75;3.15;;;7.80;69.70;;;;;;4956394;29;20031;-89
2022/02/14 08:56:48;;;;;;;7.63;3.83;;;7.80;69.60;;;;;;4957018;28;20483;-89
2022/02/14 08:59:19;;;;;;;8.93;6.00;;;7.90;70.40;;;;;;4956200;29;20288;-87
2022/02/14 09:01:49;;;;;;;10.57;5.38;;;7.90;71.00;;;;;;4956811;29;20035;-91
2022/02/14 09:04:16;;;;;;;4.20;2.88;;;7.90;72.00;;;;;;4955732;29;20035;-88
2022/02/14 09:06:42;;;;;;;4.50;2.50;;;7.90;71.80;;;;;;4939197;29;20031;-88
2022/02/14 09:09:08;;;;;;;2.80;2.47;;;8.00;72.80;;;;;;4956058;29;20050;-89
2022/02/14 09:11:35;;;;;;;5.47;2.65;;;8.00;72.40;;;;;;4956404;29;20039;-90
2022/02/14 09:14:01;;;;;;;8.57;3.70;;;8.10;72.60;;;;;;4955673;29;20475;-88
2022/02/14 09:16:27;;;;;;;7.05;4.68;;;8.10;72.70;;;;;;4959499;29;20038;-88
2022/02/14 09:18:53;;;;;;;3.80;3.50;;;8.10;72.60;;;;;;4956327;29;20054;-87
2022/02/14 09:21:19;;;;;;;6.30;2.75;;;8.20;72.90;;;;;;4955189;29;20396;-87
2022/02/14 09:23:46;;;;;;;5.80;2.60;;;8.30;72.10;;;;;;4956285;29;20031;-87
2022/02/14 09:26:13;;;;;;;6.30;4.10;;;8.40;71.80;;;;;;4938098;29;20048;-88
2022/02/14 09:28:39;;;;;;;4.85;3.63;;;8.40;71.10;;;;;;4956266;29;20039;-88
2022/02/14 09:31:07;;;;;;;4.43;3.47;;;8.50;71.40;;;;;;4955623;29;20433;-84
2022/02/14 09:33:33;;;;;;;5.35;2.35;;;8.50;70.90;;;;;;4956056;29;20378;-87
2022/02/14 09:35:59;;;;;;;5.82;3.25;;;8.60;70.00;;;;;;4969857;28;20035;-88
2022/02/14 09:38:27;;;;;;;4.53;3.03;;;8.70;70.60;;;;;;4955711;29;20050;-88
2022/02/14 09:40:54;;;;;;;5.63;3.42;;;8.90;69.90;;;;;;4955617;28;20043;-88
2022/02/14 09:43:21;;;;;;;5.18;3.20;;;8.90;69.30;;;;;;4955191;29;20035;-89
2022/02/14 09:45:47;;;;;;;4.43;3.17;;;8.90;68.90;;;;;;4957138;28;20047;-87
2022/02/14 09:48:15;;;;;;;5.40;3.67;;;8.90;69.10;;;;;;4956378;29;20039;-87
2022/02/14 09:50:42;;;;;;;7.32;2.88;;;8.90;69.00;;;;;;4957601;29;20035;-87
2022/02/14 09:53:11;;;;;;;7.30;3.20;;;9.00;68.20;;;;;;4955212;29;20483;-87
2022/02/14 09:55:39;;;;;;;3.70;2.50;;;9.10;68.00;;;;;;4968690;28;20054;-88
2022/02/14 09:58:07;;;;;;;8.93;3.00;;;9.20;67.20;;;;;;4956990;29;20039;-86
2022/02/14 10:00:34;;;;;;;5.22;3.92;;;9.40;66.40;;;;;;4957829;29;20031;-88
2022/02/14 10:03:22;;;;;;;6.85;3.80;;;9.40;66.60;;;;;;4955941;29;20027;-87
2022/02/14 10:05:56;;;;;;;5.50;2.97;;;9.50;66.00;;;;;;4956241;29;20454;-88
2022/02/14 10:08:27;;;;;;;4.10;2.58;;;9.40;65.90;;;;;;4954380;29;20137;-89
2022/02/14 10:11:09;;;;;;;6.82;3.85;;;9.40;66.10;;;;;;4955609;29;20031;-86
2022/02/14 10:13:37;;;;;;;;;;;9.40;66.20;;;;;;4955477;29;20043;-87
2022/02/14 10:16:08;;;;;;;6.15;3.13;;;9.60;65.40;;;;;;4954454;29;19921;-88
2022/02/14 10:18:36;;;;;;;3.75;3.35;;;10.00;65.10;;;;;;4955220;29;20039;-89
2022/02/14 10:21:29;;;;;;;4.93;3.72;;;10.20;63.90;;;;;;4954846;29;20046;-87
2022/02/14 10:23:59;;;;;;;5.10;3.42;;;10.20;64.10;;;;;;4938240;29;20035;-89
2022/02/14 10:26:34;;;;;;;6.72;3.47;;;10.20;64.40;;;;;;4955043;29;20055;-89
2022/02/14 10:29:13;;;;;;;11.02;5.00;;;10.40;64.60;;;;;;4954398;29;20397;-87
2022/02/14 10:31:44;;;;;;;6.07;4.78;;;10.40;63.80;;;;;;4955366;29;20040;-87
2022/02/14 10:34:11;;;;;;;;;;;10.50;63.70;;;;;;4937495;29;20043;-87
2022/02/14 10:36:40;;;;;;;7.43;5.40;;;10.50;64.00;;;;;;4954783;29;19910;-87
2022/02/14 10:39:14;;;;;;;7.97;2.83;;;10.40;64.20;;;;;;4954054;29;20043;-88
2022/02/14 10:41:43;;;;;;;4.45;3.08;;;10.50;64.50;;;;;;4955008;29;20047;-87
2022/02/14 10:44:14;;;;;;;16.83;15.30;;;10.60;64.60;;;;;;4954007;29;20035;-88
2022/02/14 10:46:41;;;;;;;6.50;4.07;;;10.90;63.40;;;;;;4954860;29;20037;-87
2022/02/14 10:49:08;;;;;;;5.35;3.58;;;11.10;63.60;;;;;;4954301;29;20031;-88
2022/02/14 10:51:35;;;;;;;4.78;3.25;;;10.90;63.60;;;;;;4954848;29;20381;-87
2022/02/14 10:54:03;;;;;;;5.88;3.00;;;11.20;63.90;;;;;;4954320;29;20038;-83
2022/02/14 10:56:38;;;;;;;3.83;3.05;;;11.20;64.00;;;;;;4953343;29;20487;-85
2022/02/14 10:59:16;;;;;;;35.28;4.38;;;11.30;63.30;;;;;;4953160;29;20040;-82
2022/02/14 11:01:43;;;;;;;75.80;40.50;;;11.40;63.40;;;;;;4952855;29;20082;-83
2022/02/14 11:04:10;;;;;;;10.63;8.45;;;11.50;63.00;;;;;;4968138;28;20039;-86
2022/02/14 11:06:37;;;;;;;12.27;7.97;;;11.50;62.90;;;;;;4937451;29;20035;-86
2022/02/14 11:09:04;;;;;;;19.30;11.80;;;11.50;62.90;;;;;;4953725;29;20407;-80
2022/02/14 11:11:36;;;;;;;19.30;17.25;;;11.60;63.40;;;;;;4954169;29;20465;-85
2022/02/14 11:14:03;;;;;;;11.85;8.18;;;11.70;63.50;;;;;;4954054;29;20054;-84
2022/02/14 11:16:32;;;;;;;18.77;16.40;;;11.70;63.00;;;;;;4936509;29;20339;-84
2022/02/14 11:19:01;;;;;;;4.13;3.72;;;11.80;63.10;;;;;;4952355;29;20477;-87
2022/02/14 11:21:31;;;;;;;13.52;12.15;;;11.90;63.20;;;;;;4952737;29;20046;-81
2022/02/14 11:24:05;;;;;;;6.55;4.68;;;11.70;62.70;;;;;;4953319;29;20039;-81
2022/02/14 11:26:43;;;;;;;5.20;4.32;;;11.80;62.90;;;;;;4938407;29;20035;-80
2022/02/14 11:29:47;;;;;;;13.98;12.02;;;11.80;63.00;;;;;;4976232;28;20062;-80
2022/02/14 11:32:29;;;;;;;6.72;4.72;;;11.90;62.90;;;;;;4939776;29;20031;-81
2022/02/14 11:35:00;;;;;;;7.85;4.65;;;12.00;63.00;;;;;;4953122;29;20031;-83
2022/02/14 11:37:56;;;;;;;8.70;4.90;;;12.00;63.00;;;;;;4951166;29;20039;-80
2022/02/14 11:40:52;;;;;;;8.32;6.93;;;12.00;62.90;;;;;;4937893;28;20058;-81
2022/02/14 11:43:23;;;;;;;10.57;5.15;;;12.00;63.10;;;;;;4969377;28;20519;-80
2022/02/14 11:46:10;;;;;;;8.07;4.57;;;12.00;63.10;;;;;;4939583;28;20035;-81
2022/02/14 11:48:36;;;;;;;8.55;6.80;;;12.20;63.20;;;;;;4971482;28;20031;-81
2022/02/14 11:51:13;;;;;;;4.03;3.05;;;12.20;63.50;;;;;;4976880;28;20480;-84
2022/02/14 11:53:47;;;;;;;7.55;3.50;;;12.00;63.60;;;;;;4963545;28;20126;-83
2022/02/14 11:56:23;;;;;;;4.63;3.05;;;12.20;63.90;;;;;;4972084;28;20039;-81
2022/02/14 11:59:21;;;;;;;4.65;3.45;;;12.30;63.60;;;;;;4970679;28;20499;-82
2022/02/14 12:01:50;;;;;;;4.57;3.10;;;12.60;64.20;;;;;;4972098;28;20051;-82
2022/02/14 12:04:32;;;;;;;4.72;2.97;;;12.70;63.40;;;;;;4970207;28;20049;-83
2022/02/14 12:07:23;;;;;;;4.65;3.00;;;12.60;63.30;;;;;;4970710;28;20054;-82
2022/02/14 12:09:58;;;;;;;7.10;3.95;;;12.80;62.70;;;;;;4973776;28;20460;-83
2022/02/14 12:12:43;;;;;;;4.20;3.30;;;12.80;63.30;;;;;;4973163;28;20049;-81
2022/02/14 12:20:50;;;;;;;6.57;3.30;;;12.60;63.90;;;;;;4975491;28;20038;-83
2022/02/14 12:23:41;;;;;;;5.03;4.53;;;12.50;64.10;;;;;;4974782;28;20053;-82
2022/02/14 12:26:30;;;;;;;;;;;;;;;;;;;;;
2022/02/14 12:31:54;;;;;;;5.28;2.80;;;12.70;64.50;;;;;;4958617;28;20042;-77
2022/02/14 12:34:31;;;;;;;11.02;7.20;;;12.70;64.70;;;;;;4989107;28;20047;-88
2022/02/14 12:37:01;;;;;;;27.80;14.48;;;12.80;64.60;;;;;;4958000;28;20035;-86
2022/02/14 12:39:36;;;;;;;10.43;7.93;;;12.90;65.00;;;;;;4975434;28;20824;-89
2022/02/14 12:42:12;;;;;;;13.40;6.05;;;12.80;64.70;;;;;;4976105;28;20039;-86
2022/02/14 12:44:42;;;;;;;3.88;3.47;;;12.70;65.10;;;;;;4958610;28;20373;-83
2022/02/14 12:47:10;;;;;;;6.38;2.85;;;12.60;65.10;;;;;;4975596;28;20031;-79
2022/02/14 12:49:40;;;;;;;6.10;4.68;;;12.60;65.80;;;;;;4975855;28;20035;-83
2022/02/14 12:52:16;;;;;;;5.30;3.90;;;12.50;66.00;;;;;;4975321;28;20027;-86
2022/02/14 12:54:56;;;;;;;6.63;5.53;;;12.40;66.60;;;;;;4987274;28;20127;-91
2022/02/14 12:57:41;;;;;;;3.88;3.17;;;12.40;67.10;;;;;;4956985;29;20472;-90
2022/02/14 13:00:21;;;;;;;3.90;3.17;;;12.30;67.20;;;;;;4972026;28;20141;-90
2022/02/14 13:02:52;;;;;;;5.63;2.83;;;12.30;67.70;;;;;;4957149;29;20054;-86
2022/02/14 13:05:18;;;;;;;;;;;12.30;67.40;;;;;;4935854;29;20044;-89
2022/02/14 13:07:45;;;;;;;7.80;3.92;;;12.40;67.50;;;;;;4935627;29;19930;-89